sensor_id;sensor_type;location;lat;lon;timestamp;P1;durP1;ratioP1;P2;durP2;ratioP2
63008;SDS011;49099;28.428;-16.488;2023-05-14T00:00:46;23.25;;;3.75;;
63008;SDS011;49099;28.428;-16.488;2023-05-14T00:03:13;34.53;;;4.88;;
63008;SDS011;49099;28.428;-16.488;2023-05-14T00:05:41;28.60;;;4.95;;
63008;SDS011;49099;28.428;-16.488;2023-05-14T00:08:08;26.75;;;4.38;;
63008;SDS011;49099;28.428;-16.488;2023-05-14T00:10:35;29.77;;;4.45;;
63008;SDS011;49099;28.428;-16.488;2023-05-14T00:13:02;27.83;;;4.57;;
63008;SDS011;49099;28.428;-16.488;2023-05-14T00:15:29;23.17;;;4.13;;
63008;SDS011;49099;28.428;-16.488;2023-05-14T00:17:59;18.42;;;3.17;;
63008;SDS011;49099;28.428;-16.488;2023-05-14T00:20:27;16.38;;;3.08;;
63008;SDS011;49099;28.428;-16.488;2023-05-14T00:22:54;22.75;;;3.85;;
63008;SDS011;49099;28.428;-16.488;2023-05-14T00:25:21;22.30;;;3.78;;
63008;SDS011;49099;28.428;-16.488;2023-05-14T00:27:49;15.77;;;3.03;;
63008;SDS011;49099;28.428;-16.488;2023-05-14T00:30:16;19.27;;;3.30;;
63008;SDS011;49099;28.428;-16.488;2023-05-14T00:32:43;16.63;;;2.95;;
63008;SDS011;49099;28.428;-16.488;2023-05-14T00:35:10;16.80;;;3.72;;
63008;SDS011;49099;28.428;-16.488;2023-05-14T00:37:37;18.35;;;3.20;;
63008;SDS011;49099;28.428;-16.488;2023-05-14T00:40:05;19.60;;;3.58;;
63008;SDS011;49099;28.428;-16.488;2023-05-14T00:42:34;19.58;;;3.60;;
63008;SDS011;49099;28.428;-16.488;2023-05-14T00:45:01;18.75;;;3.40;;
63008;SDS011;49099;28.428;-16.488;2023-05-14T00:47:28;13.98;;;2.72;;
63008;SDS011;49099;28.428;-16.488;2023-05-14T00:49:56;17.27;;;3.08;;
63008;SDS011;49099;28.428;-16.488;2023-05-14T00:52:24;17.95;;;3.10;;
63008;SDS011;49099;28.428;-16.488;2023-05-14T00:54:51;19.98;;;3.70;;
63008;SDS011;49099;28.428;-16.488;2023-05-14T00:57:20;16.85;;;3.03;;
63008;SDS011;49099;28.428;-16.488;2023-05-14T00:59:47;19.88;;;3.03;;
63008;SDS011;49099;28.428;-16.488;2023-05-14T01:02:15;19.75;;;3.13;;
63008;SDS011;49099;28.428;-16.488;2023-05-14T01:04:42;18.60;;;3.13;;
63008;SDS011;49099;28.428;-16.488;2023-05-14T01:07:15;18.80;;;3.60;;
63008;SDS011;49099;28.428;-16.488;2023-05-14T01:13:33;15.77;;;3.25;;
63008;SDS011;49099;28.428;-16.488;2023-05-14T01:16:13;18.58;;;3.30;;
63008;SDS011;49099;28.428;-16.488;2023-05-14T01:18:42;21.00;;;3.33;;
63008;SDS011;49099;28.428;-16.488;2023-05-14T01:24:01;16.88;;;3.25;;
63008;SDS011;49099;28.428;-16.488;2023-05-14T01:26:29;16.65;;;3.05;;
63008;SDS011;49099;28.428;-16.488;2023-05-14T01:29:05;20.60;;;3.38;;
63008;SDS011;49099;28.428;-16.488;2023-05-14T01:31:42;21.45;;;3.53;;
63008;SDS011;49099;28.428;-16.488;2023-05-14T01:34:11;17.63;;;3.17;;
63008;SDS011;49099;28.428;-16.488;2023-05-14T01:36:40;21.58;;;3.10;;
63008;SDS011;49099;28.428;-16.488;2023-05-14T01:39:09;17.50;;;3.10;;
63008;SDS011;49099;28.428;-16.488;2023-05-14T01:41:37;19.05;;;3.22;;
63008;SDS011;49099;28.428;-16.488;2023-05-14T01:44:05;15.70;;;2.58;;
63008;SDS011;49099;28.428;-16.488;2023-05-14T01:46:34;17.63;;;3.75;;
63008;SDS011;49099;28.428;-16.488;2023-05-14T01:49:02;12.15;;;2.47;;
63008;SDS011;49099;28.428;-16.488;2023-05-14T01:51:29;22.35;;;3.03;;
63008;SDS011;49099;28.428;-16.488;2023-05-14T01:53:56;20.05;;;3.47;;
63008;SDS011;49099;28.428;-16.488;2023-05-14T01:56:23;13.93;;;3.00;;
63008;SDS011;49099;28.428;-16.488;2023-05-14T01:58:51;19.77;;;3.20;;
63008;SDS011;49099;28.428;-16.488;2023-05-14T02:01:18;13.07;;;2.92;;
63008;SDS011;49099;28.428;-16.488;2023-05-14T02:03:45;19.00;;;3.08;;
63008;SDS011;49099;28.428;-16.488;2023-05-14T02:06:13;15.00;;;2.85;;
63008;SDS011;49099;28.428;-16.488;2023-05-14T02:08:40;17.48;;;3.17;;
63008;SDS011;49099;28.428;-16.488;2023-05-14T02:11:07;15.50;;;2.80;;
63008;SDS011;49099;28.428;-16.488;2023-05-14T02:13:34;17.80;;;3.00;;
63008;SDS011;49099;28.428;-16.488;2023-05-14T02:16:02;18.60;;;2.92;;
63008;SDS011;49099;28.428;-16.488;2023-05-14T02:18:29;12.65;;;2.67;;
63008;SDS011;49099;28.428;-16.488;2023-05-14T02:20:57;17.02;;;2.88;;
63008;SDS011;49099;28.428;-16.488;2023-05-14T02:23:24;18.33;;;3.13;;
63008;SDS011;49099;28.428;-16.488;2023-05-14T02:26:06;15.25;;;2.88;;
63008;SDS011;49099;28.428;-16.488;2023-05-14T02:28:35;14.65;;;2.90;;
63008;SDS011;49099;28.428;-16.488;2023-05-14T02:31:02;17.45;;;2.92;;
63008;SDS011;49099;28.428;-16.488;2023-05-14T02:33:29;17.00;;;3.10;;
63008;SDS011;49099;28.428;-16.488;2023-05-14T02:35:56;20.25;;;3.22;;
63008;SDS011;49099;28.428;-16.488;2023-05-14T02:38:24;20.40;;;2.85;;
63008;SDS011;49099;28.428;-16.488;2023-05-14T02:40:52;17.77;;;3.72;;
63008;SDS011;49099;28.428;-16.488;2023-05-14T02:43:19;17.67;;;3.08;;
63008;SDS011;49099;28.428;-16.488;2023-05-14T02:45:46;17.88;;;3.25;;
63008;SDS011;49099;28.428;-16.488;2023-05-14T02:48:13;14.07;;;2.95;;
63008;SDS011;49099;28.428;-16.488;2023-05-14T02:50:40;17.75;;;2.95;;
63008;SDS011;49099;28.428;-16.488;2023-05-14T02:53:07;15.38;;;3.08;;
63008;SDS011;49099;28.428;-16.488;2023-05-14T02:55:35;17.02;;;2.92;;
63008;SDS011;49099;28.428;-16.488;2023-05-14T02:58:02;14.85;;;2.95;;
63008;SDS011;49099;28.428;-16.488;2023-05-14T03:00:30;15.70;;;3.03;;
63008;SDS011;49099;28.428;-16.488;2023-05-14T03:02:57;16.77;;;3.22;;
63008;SDS011;49099;28.428;-16.488;2023-05-14T03:05:25;19.52;;;3.30;;
63008;SDS011;49099;28.428;-16.488;2023-05-14T03:07:52;16.05;;;3.20;;
63008;SDS011;49099;28.428;-16.488;2023-05-14T03:10:19;15.82;;;2.97;;
63008;SDS011;49099;28.428;-16.488;2023-05-14T03:12:47;16.73;;;3.13;;
63008;SDS011;49099;28.428;-16.488;2023-05-14T03:15:14;14.63;;;3.17;;
63008;SDS011;49099;28.428;-16.488;2023-05-14T03:17:42;14.85;;;2.63;;
63008;SDS011;49099;28.428;-16.488;2023-05-14T03:20:09;14.55;;;2.70;;
63008;SDS011;49099;28.428;-16.488;2023-05-14T03:22:38;13.48;;;2.65;;
63008;SDS011;49099;28.428;-16.488;2023-05-14T03:25:05;17.95;;;3.15;;
63008;SDS011;49099;28.428;-16.488;2023-05-14T03:27:32;17.30;;;2.90;;
63008;SDS011;49099;28.428;-16.488;2023-05-14T03:30:00;20.48;;;2.92;;
63008;SDS011;49099;28.428;-16.488;2023-05-14T03:32:27;15.95;;;3.30;;
63008;SDS011;49099;28.428;-16.488;2023-05-14T03:34:55;16.85;;;2.95;;
63008;SDS011;49099;28.428;-16.488;2023-05-14T03:37:23;11.65;;;3.00;;
63008;SDS011;49099;28.428;-16.488;2023-05-14T03:39:50;16.05;;;3.03;;
63008;SDS011;49099;28.428;-16.488;2023-05-14T03:42:17;13.20;;;2.90;;
63008;SDS011;49099;28.428;-16.488;2023-05-14T03:44:44;20.75;;;3.72;;
63008;SDS011;49099;28.428;-16.488;2023-05-14T03:47:11;17.50;;;3.30;;
63008;SDS011;49099;28.428;-16.488;2023-05-14T03:49:38;23.33;;;3.53;;
63008;SDS011;49099;28.428;-16.488;2023-05-14T03:52:05;18.13;;;3.10;;
63008;SDS011;49099;28.428;-16.488;2023-05-14T03:54:33;20.63;;;3.60;;
63008;SDS011;49099;28.428;-16.488;2023-05-14T03:57:00;19.58;;;3.28;;
63008;SDS011;49099;28.428;-16.488;2023-05-14T03:59:27;19.48;;;3.33;;
63008;SDS011;49099;28.428;-16.488;2023-05-14T04:01:54;24.67;;;4.55;;
63008;SDS011;49099;28.428;-16.488;2023-05-14T04:04:21;24.58;;;5.28;;
63008;SDS011;49099;28.428;-16.488;2023-05-14T04:06:48;22.40;;;4.60;;
63008;SDS011;49099;28.428;-16.488;2023-05-14T04:09:16;21.33;;;4.28;;
63008;SDS011;49099;28.428;-16.488;2023-05-14T04:11:43;22.17;;;4.38;;
63008;SDS011;49099;28.428;-16.488;2023-05-14T04:14:10;23.48;;;4.50;;
63008;SDS011;49099;28.428;-16.488;2023-05-14T04:16:37;20.33;;;3.88;;
63008;SDS011;49099;28.428;-16.488;2023-05-14T04:19:04;17.75;;;3.70;;
63008;SDS011;49099;28.428;-16.488;2023-05-14T04:21:32;19.02;;;3.75;;
63008;SDS011;49099;28.428;-16.488;2023-05-14T04:23:59;20.48;;;3.30;;
63008;SDS011;49099;28.428;-16.488;2023-05-14T04:26:26;15.48;;;3.22;;
63008;SDS011;49099;28.428;-16.488;2023-05-14T04:28:53;12.63;;;2.67;;
63008;SDS011;49099;28.428;-16.488;2023-05-14T04:31:21;19.63;;;3.38;;
63008;SDS011;49099;28.428;-16.488;2023-05-14T04:33:49;15.73;;;3.28;;
63008;SDS011;49099;28.428;-16.488;2023-05-14T04:36:16;13.00;;;3.10;;
63008;SDS011;49099;28.428;-16.488;2023-05-14T04:38:43;15.38;;;3.13;;
63008;SDS011;49099;28.428;-16.488;2023-05-14T04:41:10;17.45;;;3.22;;
63008;SDS011;49099;28.428;-16.488;2023-05-14T04:43:38;16.27;;;3.03;;
63008;SDS011;49099;28.428;-16.488;2023-05-14T04:46:05;14.60;;;3.08;;
63008;SDS011;49099;28.428;-16.488;2023-05-14T04:48:32;16.88;;;3.42;;
63008;SDS011;49099;28.428;-16.488;2023-05-14T04:50:59;15.65;;;3.00;;
63008;SDS011;49099;28.428;-16.488;2023-05-14T04:53:26;22.40;;;3.50;;
63008;SDS011;49099;28.428;-16.488;2023-05-14T04:55:54;19.25;;;3.40;;
63008;SDS011;49099;28.428;-16.488;2023-05-14T04:58:21;18.10;;;2.88;;
63008;SDS011;49099;28.428;-16.488;2023-05-14T05:00:49;12.45;;;3.47;;
63008;SDS011;49099;28.428;-16.488;2023-05-14T05:03:16;14.88;;;2.50;;
63008;SDS011;49099;28.428;-16.488;2023-05-14T05:05:44;18.38;;;3.20;;
63008;SDS011;49099;28.428;-16.488;2023-05-14T05:08:11;15.25;;;3.10;;
63008;SDS011;49099;28.428;-16.488;2023-05-14T05:10:38;15.60;;;2.83;;
63008;SDS011;49099;28.428;-16.488;2023-05-14T05:13:05;12.50;;;2.15;;
63008;SDS011;49099;28.428;-16.488;2023-05-14T05:15:32;21.15;;;3.00;;
63008;SDS011;49099;28.428;-16.488;2023-05-14T05:18:00;16.10;;;2.78;;
63008;SDS011;49099;28.428;-16.488;2023-05-14T05:20:27;17.38;;;3.22;;
63008;SDS011;49099;28.428;-16.488;2023-05-14T05:22:54;20.88;;;3.97;;
63008;SDS011;49099;28.428;-16.488;2023-05-14T05:25:21;23.15;;;3.60;;
63008;SDS011;49099;28.428;-16.488;2023-05-14T05:27:48;15.88;;;2.97;;
63008;SDS011;49099;28.428;-16.488;2023-05-14T05:30:15;15.45;;;3.33;;
63008;SDS011;49099;28.428;-16.488;2023-05-14T05:32:42;17.15;;;3.53;;
63008;SDS011;49099;28.428;-16.488;2023-05-14T05:35:10;20.92;;;3.53;;
63008;SDS011;49099;28.428;-16.488;2023-05-14T05:37:37;16.45;;;3.40;;
63008;SDS011;49099;28.428;-16.488;2023-05-14T05:40:04;15.77;;;2.92;;
63008;SDS011;49099;28.428;-16.488;2023-05-14T05:42:32;18.52;;;3.83;;
63008;SDS011;49099;28.428;-16.488;2023-05-14T05:44:59;16.20;;;3.17;;
63008;SDS011;49099;28.428;-16.488;2023-05-14T05:47:26;15.07;;;3.10;;
63008;SDS011;49099;28.428;-16.488;2023-05-14T05:49:53;20.17;;;3.50;;
63008;SDS011;49099;28.428;-16.488;2023-05-14T05:52:21;12.88;;;2.90;;
63008;SDS011;49099;28.428;-16.488;2023-05-14T05:54:48;17.20;;;2.97;;
63008;SDS011;49099;28.428;-16.488;2023-05-14T05:57:15;15.48;;;2.92;;
63008;SDS011;49099;28.428;-16.488;2023-05-14T05:59:42;13.43;;;3.08;;
63008;SDS011;49099;28.428;-16.488;2023-05-14T06:02:09;20.75;;;4.22;;
63008;SDS011;49099;28.428;-16.488;2023-05-14T06:04:37;19.17;;;3.88;;
63008;SDS011;49099;28.428;-16.488;2023-05-14T06:07:04;19.70;;;3.75;;
63008;SDS011;49099;28.428;-16.488;2023-05-14T06:09:31;17.45;;;3.05;;
63008;SDS011;49099;28.428;-16.488;2023-05-14T06:11:58;18.30;;;3.08;;
63008;SDS011;49099;28.428;-16.488;2023-05-14T06:14:25;18.42;;;3.38;;
63008;SDS011;49099;28.428;-16.488;2023-05-14T06:16:52;15.27;;;3.38;;
63008;SDS011;49099;28.428;-16.488;2023-05-14T06:19:20;17.95;;;3.35;;
63008;SDS011;49099;28.428;-16.488;2023-05-14T06:21:48;19.80;;;3.60;;
63008;SDS011;49099;28.428;-16.488;2023-05-14T06:24:15;14.35;;;3.25;;
63008;SDS011;49099;28.428;-16.488;2023-05-14T06:26:42;17.52;;;3.08;;
63008;SDS011;49099;28.428;-16.488;2023-05-14T06:29:09;18.38;;;3.00;;
63008;SDS011;49099;28.428;-16.488;2023-05-14T06:31:37;19.10;;;3.17;;
63008;SDS011;49099;28.428;-16.488;2023-05-14T06:34:04;15.73;;;2.97;;
63008;SDS011;49099;28.428;-16.488;2023-05-14T06:36:31;14.82;;;2.88;;
63008;SDS011;49099;28.428;-16.488;2023-05-14T06:38:58;17.08;;;3.20;;
63008;SDS011;49099;28.428;-16.488;2023-05-14T06:41:25;17.77;;;3.30;;
63008;SDS011;49099;28.428;-16.488;2023-05-14T06:43:52;22.67;;;3.28;;
63008;SDS011;49099;28.428;-16.488;2023-05-14T06:46:20;24.77;;;3.33;;
63008;SDS011;49099;28.428;-16.488;2023-05-14T06:48:47;26.00;;;3.17;;
63008;SDS011;49099;28.428;-16.488;2023-05-14T06:51:15;26.25;;;3.28;;
63008;SDS011;49099;28.428;-16.488;2023-05-14T06:53:42;22.90;;;2.90;;
63008;SDS011;49099;28.428;-16.488;2023-05-14T06:56:09;15.02;;;2.47;;
63008;SDS011;49099;28.428;-16.488;2023-05-14T06:58:36;25.63;;;3.42;;
63008;SDS011;49099;28.428;-16.488;2023-05-14T07:01:03;20.20;;;3.08;;
63008;SDS011;49099;28.428;-16.488;2023-05-14T07:03:30;17.05;;;3.00;;
63008;SDS011;49099;28.428;-16.488;2023-05-14T07:05:58;14.77;;;2.70;;
63008;SDS011;49099;28.428;-16.488;2023-05-14T07:08:25;16.85;;;2.70;;
63008;SDS011;49099;28.428;-16.488;2023-05-14T07:10:52;17.48;;;2.85;;
63008;SDS011;49099;28.428;-16.488;2023-05-14T07:13:19;14.85;;;3.22;;
63008;SDS011;49099;28.428;-16.488;2023-05-14T07:15:46;12.55;;;2.53;;
63008;SDS011;49099;28.428;-16.488;2023-05-14T07:18:13;15.80;;;2.42;;
63008;SDS011;49099;28.428;-16.488;2023-05-14T07:20:40;12.98;;;2.40;;
63008;SDS011;49099;28.428;-16.488;2023-05-14T07:23:07;12.65;;;2.60;;
63008;SDS011;49099;28.428;-16.488;2023-05-14T07:25:34;18.48;;;2.83;;
63008;SDS011;49099;28.428;-16.488;2023-05-14T07:28:01;13.35;;;2.50;;
63008;SDS011;49099;28.428;-16.488;2023-05-14T07:30:28;11.23;;;2.70;;
63008;SDS011;49099;28.428;-16.488;2023-05-14T07:32:56;12.95;;;2.85;;
63008;SDS011;49099;28.428;-16.488;2023-05-14T07:35:23;16.45;;;2.80;;
63008;SDS011;49099;28.428;-16.488;2023-05-14T07:37:50;13.60;;;2.80;;
63008;SDS011;49099;28.428;-16.488;2023-05-14T07:40:17;10.90;;;2.38;;
63008;SDS011;49099;28.428;-16.488;2023-05-14T07:42:44;14.07;;;2.90;;
63008;SDS011;49099;28.428;-16.488;2023-05-14T07:45:11;19.48;;;2.78;;
63008;SDS011;49099;28.428;-16.488;2023-05-14T07:47:39;18.70;;;3.20;;
63008;SDS011;49099;28.428;-16.488;2023-05-14T07:50:06;19.45;;;2.90;;
63008;SDS011;49099;28.428;-16.488;2023-05-14T07:52:34;17.30;;;2.80;;
63008;SDS011;49099;28.428;-16.488;2023-05-14T07:55:02;17.05;;;3.17;;
63008;SDS011;49099;28.428;-16.488;2023-05-14T07:57:29;18.48;;;3.40;;
63008;SDS011;49099;28.428;-16.488;2023-05-14T07:59:56;19.17;;;3.17;;
63008;SDS011;49099;28.428;-16.488;2023-05-14T08:02:23;17.70;;;2.85;;
63008;SDS011;49099;28.428;-16.488;2023-05-14T08:04:51;18.58;;;3.00;;
63008;SDS011;49099;28.428;-16.488;2023-05-14T08:07:18;17.15;;;3.45;;
63008;SDS011;49099;28.428;-16.488;2023-05-14T08:09:46;18.42;;;2.78;;
63008;SDS011;49099;28.428;-16.488;2023-05-14T08:12:13;14.50;;;2.78;;
63008;SDS011;49099;28.428;-16.488;2023-05-14T08:14:40;16.60;;;3.00;;
63008;SDS011;49099;28.428;-16.488;2023-05-14T08:17:07;14.20;;;3.25;;
63008;SDS011;49099;28.428;-16.488;2023-05-14T08:19:35;20.10;;;3.47;;
63008;SDS011;49099;28.428;-16.488;2023-05-14T08:22:02;16.52;;;3.50;;
63008;SDS011;49099;28.428;-16.488;2023-05-14T08:24:29;21.92;;;3.63;;
63008;SDS011;49099;28.428;-16.488;2023-05-14T08:26:57;19.60;;;3.65;;
63008;SDS011;49099;28.428;-16.488;2023-05-14T08:29:24;16.83;;;2.97;;
63008;SDS011;49099;28.428;-16.488;2023-05-14T08:31:51;23.17;;;3.70;;
63008;SDS011;49099;28.428;-16.488;2023-05-14T08:34:18;29.67;;;4.15;;
63008;SDS011;49099;28.428;-16.488;2023-05-14T08:36:45;21.67;;;3.55;;
63008;SDS011;49099;28.428;-16.488;2023-05-14T08:39:12;20.48;;;3.58;;
63008;SDS011;49099;28.428;-16.488;2023-05-14T08:41:39;25.30;;;3.38;;
63008;SDS011;49099;28.428;-16.488;2023-05-14T08:44:53;17.67;;;3.20;;
63008;SDS011;49099;28.428;-16.488;2023-05-14T08:47:17;21.63;;;3.97;;
63008;SDS011;49099;28.428;-16.488;2023-05-14T08:49:48;24.80;;;4.32;;
63008;SDS011;49099;28.428;-16.488;2023-05-14T08:52:37;29.05;;;4.05;;
63008;SDS011;49099;28.428;-16.488;2023-05-14T08:55:05;21.15;;;3.25;;
63008;SDS011;49099;28.428;-16.488;2023-05-14T08:57:33;19.15;;;3.60;;
63008;SDS011;49099;28.428;-16.488;2023-05-14T09:00:01;19.05;;;3.20;;
63008;SDS011;49099;28.428;-16.488;2023-05-14T09:02:34;18.02;;;3.20;;
63008;SDS011;49099;28.428;-16.488;2023-05-14T09:05:02;20.13;;;2.97;;
63008;SDS011;49099;28.428;-16.488;2023-05-14T09:07:29;16.02;;;2.90;;
63008;SDS011;49099;28.428;-16.488;2023-05-14T09:09:57;15.50;;;3.20;;
63008;SDS011;49099;28.428;-16.488;2023-05-14T09:12:25;17.92;;;3.17;;
63008;SDS011;49099;28.428;-16.488;2023-05-14T09:14:52;19.17;;;3.42;;
63008;SDS011;49099;28.428;-16.488;2023-05-14T09:17:19;19.77;;;3.15;;
63008;SDS011;49099;28.428;-16.488;2023-05-14T09:19:46;20.77;;;3.28;;
63008;SDS011;49099;28.428;-16.488;2023-05-14T09:22:18;19.88;;;3.50;;
63008;SDS011;49099;28.428;-16.488;2023-05-14T09:24:46;23.15;;;3.22;;
63008;SDS011;49099;28.428;-16.488;2023-05-14T09:27:32;18.50;;;3.50;;
63008;SDS011;49099;28.428;-16.488;2023-05-14T09:32:40;18.10;;;3.20;;
63008;SDS011;49099;28.428;-16.488;2023-05-14T09:35:17;22.73;;;3.60;;
63008;SDS011;49099;28.428;-16.488;2023-05-14T09:37:47;16.33;;;3.28;;
63008;SDS011;49099;28.428;-16.488;2023-05-14T09:40:15;22.23;;;3.17;;
63008;SDS011;49099;28.428;-16.488;2023-05-14T09:42:44;19.98;;;3.42;;
63008;SDS011;49099;28.428;-16.488;2023-05-14T09:45:11;16.58;;;2.90;;
63008;SDS011;49099;28.428;-16.488;2023-05-14T09:47:38;17.60;;;3.35;;
63008;SDS011;49099;28.428;-16.488;2023-05-14T09:50:06;20.52;;;3.35;;
63008;SDS011;49099;28.428;-16.488;2023-05-14T09:52:34;22.05;;;3.65;;
63008;SDS011;49099;28.428;-16.488;2023-05-14T09:55:01;21.15;;;4.15;;
63008;SDS011;49099;28.428;-16.488;2023-05-14T09:57:29;21.00;;;3.35;;
63008;SDS011;49099;28.428;-16.488;2023-05-14T09:59:56;22.80;;;3.50;;
63008;SDS011;49099;28.428;-16.488;2023-05-14T10:02:33;19.73;;;3.35;;
63008;SDS011;49099;28.428;-16.488;2023-05-14T10:05:06;18.35;;;3.15;;
63008;SDS011;49099;28.428;-16.488;2023-05-14T10:07:45;24.25;;;3.05;;
63008;SDS011;49099;28.428;-16.488;2023-05-14T10:10:15;18.38;;;3.17;;
63008;SDS011;49099;28.428;-16.488;2023-05-14T10:12:49;20.00;;;3.13;;
63008;SDS011;49099;28.428;-16.488;2023-05-14T10:15:19;19.75;;;2.75;;
63008;SDS011;49099;28.428;-16.488;2023-05-14T10:18:11;18.38;;;2.60;;
63008;SDS011;49099;28.428;-16.488;2023-05-14T10:20:43;17.38;;;2.78;;
63008;SDS011;49099;28.428;-16.488;2023-05-14T10:23:14;24.75;;;3.15;;
63008;SDS011;49099;28.428;-16.488;2023-05-14T10:25:41;19.90;;;2.97;;
63008;SDS011;49099;28.428;-16.488;2023-05-14T10:28:09;15.45;;;2.92;;
63008;SDS011;49099;28.428;-16.488;2023-05-14T10:30:43;15.80;;;2.80;;
63008;SDS011;49099;28.428;-16.488;2023-05-14T10:33:12;18.52;;;3.03;;
63008;SDS011;49099;28.428;-16.488;2023-05-14T10:38:21;17.95;;;3.20;;
63008;SDS011;49099;28.428;-16.488;2023-05-14T10:40:56;18.00;;;3.35;;
63008;SDS011;49099;28.428;-16.488;2023-05-14T10:43:26;24.92;;;3.20;;
63008;SDS011;49099;28.428;-16.488;2023-05-14T10:45:57;17.30;;;2.97;;
63008;SDS011;49099;28.428;-16.488;2023-05-14T10:48:26;13.75;;;2.70;;
63008;SDS011;49099;28.428;-16.488;2023-05-14T10:50:54;16.15;;;3.20;;
63008;SDS011;49099;28.428;-16.488;2023-05-14T10:56:06;15.75;;;3.03;;
63008;SDS011;49099;28.428;-16.488;2023-05-14T10:58:39;17.83;;;3.05;;
63008;SDS011;49099;28.428;-16.488;2023-05-14T11:01:10;16.67;;;3.05;;
63008;SDS011;49099;28.428;-16.488;2023-05-14T11:03:39;16.80;;;2.72;;
63008;SDS011;49099;28.428;-16.488;2023-05-14T11:06:12;14.57;;;2.83;;
63008;SDS011;49099;28.428;-16.488;2023-05-14T11:08:40;20.23;;;3.05;;
63008;SDS011;49099;28.428;-16.488;2023-05-14T11:11:08;14.38;;;2.83;;
63008;SDS011;49099;28.428;-16.488;2023-05-14T11:13:36;21.08;;;3.17;;
63008;SDS011;49099;28.428;-16.488;2023-05-14T11:16:04;19.15;;;3.28;;
63008;SDS011;49099;28.428;-16.488;2023-05-14T11:18:35;14.15;;;2.85;;
63008;SDS011;49099;28.428;-16.488;2023-05-14T11:21:04;15.70;;;3.40;;
63008;SDS011;49099;28.428;-16.488;2023-05-14T11:23:31;17.63;;;2.63;;
63008;SDS011;49099;28.428;-16.488;2023-05-14T11:25:58;15.82;;;2.95;;
63008;SDS011;49099;28.428;-16.488;2023-05-14T11:28:25;17.10;;;3.00;;
63008;SDS011;49099;28.428;-16.488;2023-05-14T11:30:53;19.25;;;2.95;;
63008;SDS011;49099;28.428;-16.488;2023-05-14T11:33:20;20.90;;;3.20;;
63008;SDS011;49099;28.428;-16.488;2023-05-14T11:35:53;13.73;;;2.70;;
63008;SDS011;49099;28.428;-16.488;2023-05-14T11:38:20;20.38;;;2.85;;
63008;SDS011;49099;28.428;-16.488;2023-05-14T11:40:54;14.60;;;3.05;;
63008;SDS011;49099;28.428;-16.488;2023-05-14T11:43:22;16.88;;;2.72;;
63008;SDS011;49099;28.428;-16.488;2023-05-14T11:45:50;15.98;;;2.95;;
63008;SDS011;49099;28.428;-16.488;2023-05-14T11:48:21;17.73;;;2.90;;
63008;SDS011;49099;28.428;-16.488;2023-05-14T11:50:50;16.95;;;2.85;;
63008;SDS011;49099;28.428;-16.488;2023-05-14T11:53:25;15.02;;;2.80;;
63008;SDS011;49099;28.428;-16.488;2023-05-14T11:55:53;17.02;;;2.60;;
63008;SDS011;49099;28.428;-16.488;2023-05-14T11:58:21;15.25;;;3.00;;
63008;SDS011;49099;28.428;-16.488;2023-05-14T12:00:51;17.08;;;3.10;;
63008;SDS011;49099;28.428;-16.488;2023-05-14T12:03:21;21.45;;;3.10;;
63008;SDS011;49099;28.428;-16.488;2023-05-14T12:05:58;15.23;;;2.72;;
63008;SDS011;49099;28.428;-16.488;2023-05-14T12:08:28;19.42;;;3.15;;
63008;SDS011;49099;28.428;-16.488;2023-05-14T12:10:57;17.60;;;3.30;;
63008;SDS011;49099;28.428;-16.488;2023-05-14T12:13:26;18.02;;;2.90;;
63008;SDS011;49099;28.428;-16.488;2023-05-14T12:15:57;14.98;;;2.90;;
63008;SDS011;49099;28.428;-16.488;2023-05-14T12:18:29;13.88;;;2.53;;
63008;SDS011;49099;28.428;-16.488;2023-05-14T12:21:01;16.50;;;2.53;;
63008;SDS011;49099;28.428;-16.488;2023-05-14T12:23:30;17.70;;;2.95;;
63008;SDS011;49099;28.428;-16.488;2023-05-14T12:26:01;13.88;;;2.90;;
63008;SDS011;49099;28.428;-16.488;2023-05-14T12:28:32;16.80;;;2.85;;
63008;SDS011;49099;28.428;-16.488;2023-05-14T12:31:03;15.70;;;2.90;;
63008;SDS011;49099;28.428;-16.488;2023-05-14T12:33:31;16.40;;;2.78;;
63008;SDS011;49099;28.428;-16.488;2023-05-14T12:35:58;18.48;;;3.00;;
63008;SDS011;49099;28.428;-16.488;2023-05-14T12:38:47;16.77;;;3.25;;
63008;SDS011;49099;28.428;-16.488;2023-05-14T12:41:16;19.98;;;2.92;;
63008;SDS011;49099;28.428;-16.488;2023-05-14T12:43:44;17.60;;;2.70;;
63008;SDS011;49099;28.428;-16.488;2023-05-14T12:46:14;21.05;;;3.35;;
63008;SDS011;49099;28.428;-16.488;2023-05-14T12:48:42;20.10;;;3.05;;
63008;SDS011;49099;28.428;-16.488;2023-05-14T12:51:09;15.70;;;3.20;;
63008;SDS011;49099;28.428;-16.488;2023-05-14T12:53:36;15.18;;;2.63;;
63008;SDS011;49099;28.428;-16.488;2023-05-14T12:56:04;17.88;;;3.17;;
63008;SDS011;49099;28.428;-16.488;2023-05-14T12:58:32;14.23;;;2.90;;
63008;SDS011;49099;28.428;-16.488;2023-05-14T13:00:59;20.77;;;3.38;;
63008;SDS011;49099;28.428;-16.488;2023-05-14T13:03:26;18.38;;;3.47;;
63008;SDS011;49099;28.428;-16.488;2023-05-14T13:05:53;20.40;;;3.50;;
63008;SDS011;49099;28.428;-16.488;2023-05-14T13:08:21;17.17;;;3.22;;
63008;SDS011;49099;28.428;-16.488;2023-05-14T13:10:51;19.67;;;3.75;;
63008;SDS011;49099;28.428;-16.488;2023-05-14T13:13:19;15.88;;;3.22;;
63008;SDS011;49099;28.428;-16.488;2023-05-14T13:15:46;20.88;;;3.60;;
63008;SDS011;49099;28.428;-16.488;2023-05-14T13:18:13;18.63;;;3.30;;
63008;SDS011;49099;28.428;-16.488;2023-05-14T13:20:41;19.90;;;3.55;;
63008;SDS011;49099;28.428;-16.488;2023-05-14T13:23:08;19.23;;;3.63;;
63008;SDS011;49099;28.428;-16.488;2023-05-14T13:25:36;23.25;;;4.00;;
63008;SDS011;49099;28.428;-16.488;2023-05-14T13:28:03;27.60;;;3.92;;
63008;SDS011;49099;28.428;-16.488;2023-05-14T13:30:30;20.08;;;3.45;;
63008;SDS011;49099;28.428;-16.488;2023-05-14T13:32:58;22.58;;;3.45;;
63008;SDS011;49099;28.428;-16.488;2023-05-14T13:35:25;19.05;;;3.80;;
63008;SDS011;49099;28.428;-16.488;2023-05-14T13:37:52;23.35;;;3.42;;
63008;SDS011;49099;28.428;-16.488;2023-05-14T13:40:19;16.48;;;3.33;;
63008;SDS011;49099;28.428;-16.488;2023-05-14T13:42:47;20.63;;;3.40;;
63008;SDS011;49099;28.428;-16.488;2023-05-14T13:45:14;20.83;;;3.42;;
63008;SDS011;49099;28.428;-16.488;2023-05-14T13:47:41;16.27;;;2.97;;
63008;SDS011;49099;28.428;-16.488;2023-05-14T13:50:08;20.48;;;3.33;;
63008;SDS011;49099;28.428;-16.488;2023-05-14T13:52:35;18.63;;;3.17;;
63008;SDS011;49099;28.428;-16.488;2023-05-14T13:55:04;18.80;;;3.17;;
63008;SDS011;49099;28.428;-16.488;2023-05-14T13:57:32;16.98;;;3.00;;
63008;SDS011;49099;28.428;-16.488;2023-05-14T13:59:59;15.93;;;3.03;;
63008;SDS011;49099;28.428;-16.488;2023-05-14T14:02:27;23.45;;;3.92;;
63008;SDS011;49099;28.428;-16.488;2023-05-14T14:04:54;18.98;;;3.10;;
63008;SDS011;49099;28.428;-16.488;2023-05-14T14:07:22;15.15;;;2.83;;
63008;SDS011;49099;28.428;-16.488;2023-05-14T14:09:49;20.08;;;3.22;;
63008;SDS011;49099;28.428;-16.488;2023-05-14T14:12:16;13.15;;;2.97;;
63008;SDS011;49099;28.428;-16.488;2023-05-14T14:14:43;19.02;;;3.00;;
63008;SDS011;49099;28.428;-16.488;2023-05-14T14:17:10;17.70;;;3.25;;
63008;SDS011;49099;28.428;-16.488;2023-05-14T14:19:39;15.23;;;3.13;;
63008;SDS011;49099;28.428;-16.488;2023-05-14T14:22:06;19.80;;;3.20;;
63008;SDS011;49099;28.428;-16.488;2023-05-14T14:24:34;18.75;;;3.30;;
63008;SDS011;49099;28.428;-16.488;2023-05-14T14:27:01;21.85;;;3.40;;
63008;SDS011;49099;28.428;-16.488;2023-05-14T14:29:28;19.30;;;3.20;;